createdAt,value
2019-04-06T00:00:36.695Z,39.10
2019-04-06T00:03:07.462Z,42.62
2019-04-06T00:05:38.618Z,40.27
2019-04-06T00:08:08.661Z,39.20
2019-04-06T00:10:38.747Z,37.73
2019-04-06T00:13:08.937Z,45.93
2019-04-06T00:15:39.356Z,38.00
2019-04-06T00:18:09.485Z,40.60
2019-04-06T00:20:39.615Z,41.10
2019-04-06T00:23:09.672Z,46.33
2019-04-06T00:25:44.708Z,42.60
2019-04-06T00:28:11.514Z,41.40
2019-04-06T00:30:49.593Z,41.60
2019-04-06T00:33:20.726Z,40.03
2019-04-06T00:35:50.759Z,40.27
2019-04-06T00:38:20.795Z,44.57
2019-04-06T00:40:50.926Z,42.83
2019-04-06T00:43:21.059Z,43.05
2019-04-06T00:45:51.371Z,46.67
2019-04-06T00:48:22.717Z,42.60
2019-04-06T00:50:52.762Z,38.40
2019-04-06T00:53:22.838Z,39.13
2019-04-06T00:55:55.751Z,40.50
2019-04-06T00:58:24.630Z,42.33
2019-04-06T01:00:54.667Z,39.80
2019-04-06T01:03:24.917Z,41.00
2019-04-06T01:05:55.352Z,42.00
2019-04-06T01:08:25.495Z,38.67
2019-04-06T01:10:55.609Z,41.33
2019-04-06T01:13:25.761Z,43.77
2019-04-06T01:15:55.983Z,43.97
2019-04-06T01:18:26.196Z,41.67
2019-04-06T01:20:56.270Z,45.10
2019-04-06T01:23:26.305Z,44.50
2019-04-06T01:26:06.706Z,40.87
2019-04-06T01:28:28.439Z,42.13
2019-04-06T01:30:58.496Z,43.17
2019-04-06T01:33:28.536Z,39.43
2019-04-06T01:35:59.155Z,40.83
2019-04-06T01:38:29.425Z,44.70
2019-04-06T01:41:00.703Z,41.58
2019-04-06T01:43:30.853Z,44.70
2019-04-06T01:46:00.911Z,43.97
2019-04-06T01:48:30.961Z,36.00
2019-04-06T01:51:02.602Z,41.77
2019-04-06T01:53:32.770Z,39.63
2019-04-06T01:56:03.029Z,39.00
2019-04-06T01:58:33.366Z,40.30
2019-04-06T02:01:32.074Z,40.37
2019-04-06T02:04:03.945Z,43.80
2019-04-06T02:06:34.030Z,46.07
2019-04-06T02:09:06.042Z,43.58
2019-04-06T02:11:36.412Z,40.90
2019-04-06T02:14:06.742Z,39.30
2019-04-06T02:16:36.813Z,37.60
2019-04-06T02:19:06.928Z,38.73
2019-04-06T02:21:37.026Z,39.83
2019-04-06T02:24:07.348Z,36.83
2019-04-06T02:26:37.766Z,35.90
2019-04-06T02:29:07.798Z,30.53
2019-04-06T02:32:05.939Z,38.93
2019-04-06T02:35:01.003Z,32.13
2019-04-06T02:37:42.063Z,33.60
2019-04-06T02:40:37.225Z,32.03
2019-04-06T02:43:14.250Z,31.20
2019-04-06T02:45:44.638Z,35.10
2019-04-06T02:48:14.868Z,35.80
2019-04-06T02:50:45.067Z,37.30
2019-04-06T02:53:15.242Z,31.17
2019-04-06T02:55:45.659Z,36.00
2019-04-06T02:58:15.717Z,33.50
2019-04-06T03:00:45.808Z,34.53
2019-04-06T03:03:16.331Z,35.63
2019-04-06T03:05:46.859Z,34.40
2019-04-06T03:08:17.162Z,33.53
2019-04-06T03:10:47.327Z,35.93
2019-04-06T03:13:17.736Z,35.77
2019-04-06T03:15:47.868Z,36.13
2019-04-06T03:18:18.188Z,36.97
2019-04-06T03:20:48.896Z,35.27
2019-04-06T03:23:19.034Z,38.83
2019-04-06T03:25:51.179Z,37.27
2019-04-06T03:28:21.256Z,40.13
2019-04-06T03:30:51.320Z,33.20
2019-04-06T03:33:21.479Z,36.57
2019-04-06T03:35:52.376Z,37.60
2019-04-06T03:38:22.979Z,34.40
2019-04-06T03:40:53.092Z,37.53
2019-04-06T03:43:23.295Z,33.00
2019-04-06T03:45:53.412Z,35.83
2019-04-06T03:48:23.485Z,37.23
2019-04-06T03:50:53.889Z,33.97
2019-04-06T03:53:24.020Z,32.03
2019-04-06T03:55:54.171Z,34.90
2019-04-06T03:58:24.227Z,32.13
2019-04-06T04:00:54.466Z,36.90
2019-04-06T04:03:25.113Z,35.93
2019-04-06T04:05:56.439Z,31.80
2019-04-06T04:08:26.486Z,33.17
2019-04-06T04:10:56.856Z,33.77
2019-04-06T04:13:26.897Z,31.17
2019-04-06T04:15:57.520Z,37.10
2019-04-06T04:18:28.076Z,34.83
2019-04-06T04:20:58.267Z,33.20
2019-04-06T04:23:28.669Z,33.20
2019-04-06T04:25:59.140Z,31.87
2019-04-06T04:28:29.407Z,32.27
2019-04-06T04:31:00.632Z,36.97
2019-04-06T04:33:31.007Z,31.57
2019-04-06T04:36:01.302Z,33.30
2019-04-06T04:38:31.731Z,34.53
2019-04-06T04:41:02.291Z,36.13
2019-04-06T04:43:32.498Z,33.93
2019-04-06T04:46:02.583Z,36.60
2019-04-06T04:48:32.717Z,36.73
2019-04-06T04:51:03.482Z,37.65
2019-04-06T04:53:33.574Z,35.93
2019-04-06T04:56:03.624Z,33.93
2019-04-06T04:58:33.695Z,35.67
2019-04-06T05:01:04.098Z,34.90
2019-04-06T05:03:34.339Z,41.70
2019-04-06T05:06:05.887Z,37.03
2019-04-06T05:08:36.216Z,34.07
2019-04-06T05:11:06.427Z,39.37
2019-04-06T05:13:36.766Z,35.80
2019-04-06T05:16:12.961Z,38.45
2019-04-06T05:18:44.087Z,32.40
2019-04-06T05:21:14.556Z,35.23
2019-04-06T05:23:44.687Z,32.90
2019-04-06T05:26:16.693Z,36.85
2019-04-06T05:28:47.238Z,34.93
2019-04-06T05:31:17.392Z,38.20
2019-04-06T05:33:47.454Z,32.03
2019-04-06T05:36:17.581Z,33.13
2019-04-06T05:38:47.794Z,39.20
2019-04-06T05:41:17.855Z,34.77
2019-04-06T05:43:48.038Z,38.10
2019-04-06T05:46:18.322Z,38.23
2019-04-06T05:48:48.541Z,31.40
2019-04-06T05:51:18.596Z,37.40
2019-04-06T05:53:49.897Z,40.70
2019-04-06T05:56:23.227Z,42.80
2019-04-06T05:58:53.633Z,35.00
2019-04-06T06:01:23.789Z,36.20
2019-04-06T06:03:53.856Z,36.97
2019-04-06T06:06:24.052Z,41.67
2019-04-06T06:08:54.125Z,37.53
2019-04-06T06:11:29.723Z,37.83
2019-04-06T06:13:59.802Z,43.37
2019-04-06T06:16:30.018Z,39.83
2019-04-06T06:19:01.111Z,44.83
2019-04-06T06:21:31.506Z,34.70
2019-04-06T06:24:02.074Z,40.27
2019-04-06T06:26:32.524Z,36.53
2019-04-06T06:29:02.710Z,37.60
2019-04-06T06:31:32.793Z,34.17
2019-04-06T06:34:02.900Z,41.17
2019-04-06T06:36:32.964Z,39.60
2019-04-06T06:39:04.005Z,44.83
2019-04-06T06:41:34.912Z,41.00
2019-04-06T06:44:05.630Z,37.53
2019-04-06T06:46:35.947Z,37.57
2019-04-06T06:49:06.130Z,43.23
2019-04-06T06:51:36.223Z,44.37
2019-04-06T06:54:07.511Z,51.67
2019-04-06T06:56:38.069Z,48.17
2019-04-06T06:59:08.241Z,46.50
2019-04-06T07:01:38.599Z,49.13
2019-04-06T07:04:08.830Z,50.50
2019-04-06T07:06:38.899Z,47.17
2019-04-06T07:09:09.196Z,52.03
2019-04-06T07:11:39.451Z,39.73
2019-04-06T07:14:09.839Z,45.77
2019-04-06T07:16:41.244Z,43.90
2019-04-06T07:19:11.939Z,48.55
2019-04-06T07:21:42.708Z,47.70
2019-04-06T07:24:13.085Z,40.27
2019-04-06T07:26:43.157Z,41.97
2019-04-06T07:29:13.364Z,38.57
2019-04-06T07:31:43.858Z,46.10
2019-04-06T07:34:15.273Z,48.87
2019-04-06T07:36:45.353Z,44.37
2019-04-06T07:39:15.772Z,41.75
2019-04-06T07:41:46.277Z,46.30
2019-04-06T07:44:17.343Z,48.47
2019-04-06T07:46:50.737Z,43.60
2019-04-06T07:49:25.963Z,42.50
2019-04-06T07:51:56.183Z,46.00
2019-04-06T07:54:26.320Z,49.77
2019-04-06T07:56:56.589Z,45.20
2019-04-06T07:59:26.884Z,49.67
2019-04-06T08:01:57.084Z,45.07
2019-04-06T08:04:27.194Z,46.97
2019-04-06T08:06:57.263Z,51.80
2019-04-06T08:09:27.330Z,40.17
2019-04-06T08:11:57.473Z,38.20
2019-04-06T08:14:27.914Z,45.87
2019-04-06T08:16:58.145Z,40.90
2019-04-06T08:19:28.324Z,33.63
2019-04-06T08:21:58.420Z,45.50
2019-04-06T08:24:28.490Z,43.87
2019-04-06T08:26:58.889Z,41.70
2019-04-06T08:29:29.191Z,37.53
2019-04-06T08:31:59.544Z,43.37
2019-04-06T08:34:29.704Z,39.63
2019-04-06T08:37:00.151Z,36.20
2019-04-06T08:39:30.313Z,45.37
2019-04-06T08:42:00.455Z,40.60
2019-04-06T08:44:30.556Z,39.23
2019-04-06T08:47:01.640Z,38.80
2019-04-06T08:49:31.789Z,30.80
2019-04-06T08:52:02.639Z,41.63
2019-04-06T08:54:33.014Z,35.63
2019-04-06T08:57:03.245Z,33.40
2019-04-06T08:59:33.620Z,31.60
2019-04-06T09:02:03.747Z,34.50
2019-04-06T09:04:34.136Z,32.17
2019-04-06T09:07:04.553Z,32.03
2019-04-06T09:09:34.695Z,35.70
2019-04-06T09:12:04.854Z,30.43
2019-04-06T09:14:35.243Z,28.13
2019-04-06T09:17:05.406Z,30.50
2019-04-06T09:19:35.558Z,28.30
2019-04-06T09:22:05.678Z,25.63
2019-04-06T09:24:35.759Z,27.03
2019-04-06T09:27:05.906Z,27.20
2019-04-06T09:29:39.833Z,28.60
2019-04-06T09:32:11.463Z,24.87
2019-04-06T09:34:41.571Z,28.60
2019-04-06T09:37:11.738Z,29.53
2019-04-06T09:39:43.614Z,30.70
2019-04-06T09:42:13.686Z,29.90
2019-04-06T09:44:52.898Z,30.17
2019-04-06T09:47:36.648Z,30.00
2019-04-06T09:50:25.258Z,29.63
2019-04-06T09:53:14.403Z,30.10
2019-04-06T09:55:57.847Z,26.10
2019-04-06T09:58:55.775Z,28.90
2019-04-06T10:01:52.895Z,22.90
2019-04-06T10:04:44.879Z,24.43
2019-04-06T10:07:46.056Z,22.67
2019-04-06T10:10:44.784Z,27.10
2019-04-06T10:13:34.056Z,26.60
2019-04-06T10:16:23.092Z,24.07
2019-04-06T10:19:08.244Z,26.33
2019-04-06T10:21:55.250Z,23.77
2019-04-06T10:24:50.837Z,20.90
2019-04-06T10:27:39.187Z,25.60
2019-04-06T10:30:38.455Z,22.52
2019-04-06T10:33:24.019Z,24.17
2019-04-06T10:36:09.748Z,24.20
2019-04-06T10:38:55.569Z,29.60
2019-04-06T10:41:31.927Z,27.10
2019-04-06T10:44:15.646Z,28.35
2019-04-06T10:47:00.567Z,23.93
2019-04-06T10:49:39.866Z,28.03
2019-04-06T10:52:27.565Z,26.37
2019-04-06T10:55:16.695Z,24.13
2019-04-06T10:58:15.922Z,24.93
2019-04-06T11:00:55.604Z,23.53
2019-04-06T11:03:31.953Z,23.77
2019-04-06T11:06:14.677Z,23.42
2019-04-06T11:09:12.951Z,23.97
2019-04-06T11:12:05.626Z,25.97
2019-04-06T11:15:05.947Z,23.07
2019-04-06T11:17:46.538Z,22.30
2019-04-06T11:20:24.266Z,22.10
2019-04-06T11:23:23.902Z,22.17
2019-04-06T11:26:11.892Z,24.43
2019-04-06T11:29:02.254Z,25.57
2019-04-06T11:32:07.724Z,29.00
2019-04-06T11:35:13.464Z,22.83
2019-04-06T11:38:03.089Z,24.67
2019-04-06T11:40:41.016Z,26.03
2019-04-06T11:43:26.520Z,24.18
2019-04-06T11:46:05.638Z,25.93
2019-04-06T11:48:58.716Z,22.43
2019-04-06T11:51:41.352Z,22.90
2019-04-06T11:54:42.535Z,24.73
2019-04-06T11:57:51.890Z,20.17
2019-04-06T12:00:31.398Z,21.53
2019-04-06T12:03:13.430Z,22.70
2019-04-06T12:06:05.886Z,18.53
2019-04-06T12:08:42.796Z,18.73
2019-04-06T12:11:35.278Z,17.90
2019-04-06T12:14:14.248Z,17.53
2019-04-06T12:16:50.582Z,17.67
2019-04-06T12:19:29.884Z,16.85
2019-04-06T12:22:28.376Z,16.97
2019-04-06T12:25:06.475Z,16.83
2019-04-06T12:27:55.865Z,16.20
2019-04-06T12:30:47.851Z,11.20
2019-04-06T12:33:36.254Z,13.20
2019-04-06T12:36:17.897Z,13.80
2019-04-06T12:38:56.220Z,14.30
2019-04-06T12:41:43.912Z,14.87
2019-04-06T12:44:36.803Z,13.75
2019-04-06T12:47:24.992Z,15.97
2019-04-06T12:50:12.791Z,13.30
2019-04-06T12:52:54.398Z,13.00
2019-04-06T12:55:37.784Z,14.97
2019-04-06T12:58:33.204Z,12.47
2019-04-06T13:01:34.842Z,13.37
2019-04-06T13:04:28.156Z,13.53
2019-04-06T13:07:17.285Z,12.77
2019-04-06T13:10:18.717Z,14.13
2019-04-06T13:13:05.267Z,11.43
2019-04-06T13:15:58.120Z,13.33
2019-04-06T13:18:40.127Z,12.30
2019-04-06T13:21:27.552Z,11.10
2019-04-06T13:24:08.273Z,12.37
2019-04-06T13:26:58.917Z,13.70
2019-04-06T13:29:35.565Z,13.00
2019-04-06T13:32:23.802Z,11.60
2019-04-06T13:35:16.659Z,13.07
2019-04-06T13:37:57.695Z,12.30
2019-04-06T13:40:45.330Z,12.30
2019-04-06T13:43:37.209Z,11.27
2019-04-06T13:46:25.005Z,12.77
2019-04-06T13:49:06.464Z,13.90
2019-04-06T13:51:47.866Z,11.33
2019-04-06T13:54:40.286Z,12.30
2019-04-06T13:57:32.435Z,12.80
2019-04-06T14:00:15.075Z,12.20
2019-04-06T14:02:53.981Z,11.67
2019-04-06T14:05:43.726Z,11.50
2019-04-06T14:08:21.364Z,11.33
2019-04-06T14:11:00.779Z,11.03
2019-04-06T14:13:44.238Z,10.67
2019-04-06T14:16:36.431Z,13.78
2019-04-06T14:19:38.249Z,10.77
2019-04-06T14:22:28.602Z,11.30
2019-04-06T14:25:28.166Z,10.43
2019-04-06T14:28:11.084Z,10.67
2019-04-06T14:30:51.221Z,11.67
2019-04-06T14:33:41.162Z,11.90
2019-04-06T14:36:29.505Z,12.58
2019-04-06T14:39:27.648Z,11.43
2019-04-06T14:42:16.294Z,11.07
2019-04-06T14:45:09.722Z,11.80
2019-04-06T14:47:49.768Z,9.47
2019-04-06T14:50:35.217Z,10.97
2019-04-06T14:53:16.383Z,10.97
2019-04-06T14:56:02.472Z,11.20
2019-04-06T14:59:00.642Z,9.83
2019-04-06T15:01:45.300Z,9.83
2019-04-06T15:04:34.672Z,13.83
2019-04-06T15:07:12.310Z,10.20
2019-04-06T15:10:07.406Z,10.63
2019-04-06T15:12:55.542Z,9.67
2019-04-06T15:15:47.795Z,9.40
2019-04-06T15:18:31.388Z,8.50
2019-04-06T15:21:13.563Z,9.17
2019-04-06T15:24:02.743Z,8.43
2019-04-06T15:27:01.057Z,8.03
2019-04-06T15:29:50.792Z,8.93
2019-04-06T15:32:30.095Z,9.67
2019-04-06T15:35:25.894Z,10.60
2019-04-06T15:38:33.562Z,9.37
2019-04-06T15:41:24.585Z,8.83
2019-04-06T15:44:13.066Z,8.30
2019-04-06T15:47:01.014Z,8.30
2019-04-06T15:49:53.462Z,7.20
2019-04-06T15:52:52.209Z,7.90
2019-04-06T15:55:36.433Z,7.10
2019-04-06T15:58:28.559Z,7.63
2019-04-06T16:01:12.970Z,6.20
2019-04-06T16:04:03.090Z,6.97
2019-04-06T16:06:54.968Z,6.83
2019-04-06T16:09:43.319Z,7.50
2019-04-06T16:12:29.306Z,6.73
2019-04-06T16:15:25.491Z,7.67
2019-04-06T16:18:20.671Z,6.53
2019-04-06T16:21:12.713Z,7.70
2019-04-06T16:24:03.562Z,7.93
2019-04-06T16:26:40.134Z,7.17
2019-04-06T16:29:27.990Z,7.23
2019-04-06T16:32:32.378Z,7.87
2019-04-06T16:35:07.919Z,6.43
2019-04-06T16:37:55.708Z,7.50
2019-04-06T16:40:57.353Z,6.73
2019-04-06T16:43:37.249Z,7.83
2019-04-06T16:46:16.681Z,7.30
2019-04-06T16:49:03.796Z,8.17
2019-04-06T16:51:47.025Z,7.33
2019-04-06T16:54:40.112Z,6.70
2019-04-06T16:57:40.442Z,6.70
2019-04-06T17:00:29.269Z,8.50
2019-04-06T17:03:07.217Z,8.30
2019-04-06T17:05:46.519Z,7.83
2019-04-06T17:08:30.563Z,7.60
2019-04-06T17:11:29.021Z,8.80
2019-04-06T17:14:19.078Z,7.90
2019-04-06T17:17:06.977Z,7.97
2019-04-06T17:19:55.630Z,8.00
2019-04-06T17:22:53.996Z,9.13
2019-04-06T17:25:46.363Z,7.97
2019-04-06T17:28:42.224Z,7.80
2019-04-06T17:31:30.371Z,7.67
2019-04-06T17:34:28.577Z,7.53
2019-04-06T17:37:06.142Z,10.30
2019-04-06T17:39:44.979Z,8.77
2019-04-06T17:42:34.435Z,8.10
2019-04-06T17:45:23.044Z,8.97
2019-04-06T17:48:11.538Z,8.87
2019-04-06T17:50:54.967Z,9.63
2019-04-06T17:53:50.489Z,9.10
2019-04-06T17:56:51.641Z,8.37
2019-04-06T17:59:33.960Z,8.60
2019-04-06T18:02:12.576Z,9.50
2019-04-06T18:04:53.534Z,8.33
2019-04-06T18:07:45.622Z,8.53
2019-04-06T18:10:34.959Z,9.23
2019-04-06T18:13:30.796Z,9.20
2019-04-06T18:16:01.182Z,8.73
2019-04-06T18:18:31.569Z,8.00
2019-04-06T18:21:01.747Z,8.57
2019-04-06T18:23:32.293Z,10.93
2019-04-06T18:26:02.799Z,9.20
2019-04-06T18:28:32.930Z,9.67
2019-04-06T18:31:16.234Z,7.77
2019-04-06T18:33:54.759Z,8.23
2019-04-06T18:36:43.354Z,8.53
2019-04-06T18:39:14.125Z,9.90
2019-04-06T18:41:45.888Z,8.50
2019-04-06T18:44:17.547Z,8.53
2019-04-06T18:46:47.738Z,8.23
2019-04-06T18:49:18.152Z,7.07
2019-04-06T18:51:48.928Z,7.60
2019-04-06T18:54:19.935Z,7.67
2019-04-06T18:56:50.279Z,8.20
2019-04-06T18:59:20.888Z,8.07
2019-04-06T19:01:51.131Z,7.80
2019-04-06T19:04:21.613Z,8.40
2019-04-06T19:06:51.991Z,7.60
2019-04-06T19:09:24.748Z,7.33
2019-04-06T19:11:56.680Z,7.67
2019-04-06T19:14:25.941Z,8.40
2019-04-06T19:16:56.986Z,8.20
2019-04-06T19:19:27.600Z,8.23
2019-04-06T19:21:57.875Z,8.53
2019-04-06T19:24:28.625Z,7.40
2019-04-06T19:26:58.978Z,8.20
2019-04-06T19:29:29.972Z,9.30
2019-04-06T19:32:00.222Z,7.37
2019-04-06T19:34:31.429Z,7.70
2019-04-06T19:37:01.850Z,7.73
2019-04-06T19:39:31.939Z,7.70
2019-04-06T19:42:02.742Z,7.33
2019-04-06T19:44:33.120Z,8.70
2019-04-06T19:47:03.186Z,8.23
2019-04-06T19:49:33.972Z,6.90
2019-04-06T19:52:13.045Z,7.05
2019-04-06T19:54:45.060Z,7.37
2019-04-06T19:57:15.161Z,6.60
2019-04-06T19:59:45.761Z,8.57
2019-04-06T20:02:16.176Z,7.67
2019-04-06T20:04:46.666Z,8.60
2019-04-06T20:07:17.169Z,7.70
2019-04-06T20:09:47.500Z,8.60
2019-04-06T20:12:17.948Z,8.77
2019-04-06T20:14:48.376Z,8.27
2019-04-06T20:17:18.913Z,8.17
2019-04-06T20:19:48.977Z,7.30
2019-04-06T20:22:19.195Z,7.47
2019-04-06T20:24:49.430Z,7.00
2019-04-06T20:27:19.839Z,7.40
2019-04-06T20:29:58.768Z,7.40
2019-04-06T20:32:29.384Z,6.27
2019-04-06T20:35:00.593Z,6.27
2019-04-06T20:37:30.870Z,6.80
2019-04-06T20:40:01.807Z,7.53
2019-04-06T20:42:32.514Z,6.50
2019-04-06T20:45:03.123Z,6.43
2019-04-06T20:47:33.243Z,6.40
2019-04-06T20:50:03.696Z,5.93
2019-04-06T20:52:36.043Z,6.40
2019-04-06T20:55:07.045Z,6.50
2019-04-06T20:57:41.092Z,5.50
2019-04-06T21:00:12.064Z,5.10
2019-04-06T21:02:44.100Z,5.70
2019-04-06T21:05:14.954Z,4.97
2019-04-06T21:07:45.165Z,5.30
2019-04-06T21:10:15.472Z,5.30
2019-04-06T21:12:46.068Z,5.20
2019-04-06T21:15:20.563Z,5.23
2019-04-06T21:17:49.484Z,5.10
2019-04-06T21:20:19.672Z,4.65
2019-04-06T21:22:50.064Z,4.60
2019-04-06T21:25:21.076Z,5.50
2019-04-06T21:27:51.419Z,5.47
2019-04-06T21:30:21.476Z,5.10
2019-04-06T21:32:52.462Z,5.47
2019-04-06T21:35:23.611Z,7.78
2019-04-06T21:37:54.388Z,5.63
2019-04-06T21:40:25.074Z,4.67
2019-04-06T21:42:55.428Z,5.17
2019-04-06T21:45:26.129Z,5.03
2019-04-06T21:47:56.779Z,4.50
2019-04-06T21:50:27.543Z,4.33
2019-04-06T21:52:58.569Z,4.87
2019-04-06T21:55:28.850Z,4.50
2019-04-06T21:57:59.173Z,4.07
2019-04-06T22:01:01.417Z,4.20
2019-04-06T22:03:32.635Z,4.90
2019-04-06T22:06:03.645Z,4.47
2019-04-06T22:08:34.005Z,5.03
2019-04-06T22:11:06.123Z,6.87
2019-04-06T22:13:36.564Z,4.40
2019-04-06T22:16:07.445Z,4.93
2019-04-06T22:18:37.886Z,4.90
2019-04-06T22:21:08.443Z,4.20
2019-04-06T22:23:42.182Z,4.30
2019-04-06T22:26:12.854Z,3.70
2019-04-06T22:28:42.916Z,4.40
2019-04-06T22:31:13.531Z,5.17
2019-04-06T22:33:43.935Z,5.00
2019-04-06T22:36:14.163Z,4.40
2019-04-06T22:38:44.661Z,3.97
2019-04-06T22:41:14.767Z,4.00
2019-04-06T22:43:44.812Z,5.97
2019-04-06T22:46:14.938Z,4.30
2019-04-06T22:48:45.045Z,4.60
2019-04-06T22:51:16.117Z,5.45
2019-04-06T22:53:46.505Z,4.30
2019-04-06T22:56:16.815Z,4.60
2019-04-06T22:58:46.946Z,4.53
2019-04-06T23:01:17.454Z,4.30
2019-04-06T23:04:08.759Z,4.87
2019-04-06T23:06:42.467Z,4.73
2019-04-06T23:09:13.419Z,4.20
2019-04-06T23:11:43.844Z,4.63
2019-04-06T23:14:14.054Z,4.77
2019-04-06T23:16:44.639Z,4.67
2019-04-06T23:19:14.891Z,4.70
2019-04-06T23:21:45.087Z,5.37
2019-04-06T23:24:15.175Z,5.33
2019-04-06T23:26:45.812Z,5.80
2019-04-06T23:29:15.889Z,5.20
2019-04-06T23:31:46.671Z,5.13
2019-04-06T23:34:17.055Z,4.43
2019-04-06T23:36:47.389Z,6.30
2019-04-06T23:39:18.400Z,7.27
2019-04-06T23:41:48.693Z,5.37
2019-04-06T23:44:18.779Z,5.90
2019-04-06T23:46:48.834Z,4.90
2019-04-06T23:49:20.023Z,4.90
2019-04-06T23:51:50.131Z,5.03
2019-04-06T23:54:20.512Z,4.90
2019-04-06T23:56:51.837Z,5.97
2019-04-06T23:59:22.228Z,5.47
